Time;durP1;ratioP1;P1;durP2;ratioP2;P2;SDS_P1;SDS_P2;PMS_P1;PMS_P2;Temp;Humidity;BMP_temperature;BMP_pressure;BME280_temperature;BME280_humidity;BME280_pressure;Samples;Min_cycle;Max_cycle;Signal;HPM_P1;HPM_P2
2022/11/20 00:00:07;;;;;;;1999.90;999.90;;;6.60;99.90;;;;;;5014809;28;20195;-71
2022/11/20 00:02:33;;;;;;;1999.90;999.90;;;5.70;99.90;;;;;;5022110;28;20179;-69
2022/11/20 00:04:58;;;;;;;1999.90;999.90;;;5.70;99.90;;;;;;5014280;28;20460;-69
2022/11/20 00:07:24;;;;;;;1999.90;999.90;;;5.60;99.90;;;;;;5019408;28;20160;-69
2022/11/20 00:09:49;;;;;;;1999.90;999.90;;;5.60;99.90;;;;;;5025796;28;20646;-71
2022/11/20 00:12:15;;;;;;;1999.90;999.90;;;5.60;99.90;;;;;;5020382;28;20183;-69
2022/11/20 00:14:41;;;;;;;1999.90;999.90;;;5.60;99.90;;;;;;5014376;28;20227;-70
2022/11/20 00:17:07;;;;;;;1999.90;999.90;;;5.50;99.90;;;;;;5014214;28;20419;-70
2022/11/20 00:19:32;;;;;;;1999.90;999.90;;;5.50;99.90;;;;;;5014856;28;20176;-70
2022/11/20 00:21:58;;;;;;;1999.90;999.90;;;5.60;99.90;;;;;;5014210;28;20211;-69
2022/11/20 00:24:23;;;;;;;1999.90;999.90;;;5.50;99.90;;;;;;5014252;28;20855;-70
2022/11/20 00:26:49;;;;;;;1999.90;999.90;;;5.50;99.90;;;;;;5019987;28;20169;-70
2022/11/20 00:29:15;;;;;;;1999.90;999.90;;;5.40;99.90;;;;;;5013753;28;20604;-70
2022/11/20 00:31:41;;;;;;;1999.90;999.90;;;5.50;99.90;;;;;;5013982;28;20172;-69
2022/11/20 00:34:06;;;;;;;1999.90;999.90;;;5.50;99.90;;;;;;5019013;28;20428;-69
2022/11/20 00:36:33;;;;;;;1999.90;999.90;;;5.50;99.90;;;;;;5015331;28;20206;-70
2022/11/20 00:38:59;;;;;;;1999.90;999.90;;;5.50;99.90;;;;;;5023142;28;20165;-69
2022/11/20 00:41:27;;;;;;;1999.90;999.90;;;5.50;99.90;;;;;;5017635;28;20404;-69
2022/11/20 00:43:54;;;;;;;1999.90;999.90;;;5.50;99.90;;;;;;5020870;28;20408;-70
2022/11/20 00:46:22;;;;;;;1999.90;999.90;;;5.50;99.90;;;;;;5013758;28;20778;-69
2022/11/20 00:48:47;;;;;;;1999.90;999.90;;;5.50;99.90;;;;;;5013480;28;20404;-69
2022/11/20 00:51:15;;;;;;;1999.90;999.90;;;5.50;99.90;;;;;;5013570;28;20443;-69
2022/11/20 00:53:42;;;;;;;1999.90;999.90;;;5.50;99.90;;;;;;5014255;28;20553;-70
2022/11/20 00:56:11;;;;;;;1999.90;999.90;;;5.40;99.90;;;;;;5019017;28;20413;-69
2022/11/20 00:58:38;;;;;;;1999.90;999.90;;;5.40;99.90;;;;;;5019559;28;20414;-69
2022/11/20 01:01:08;;;;;;;1999.90;999.90;;;5.40;99.90;;;;;;5013709;28;20407;-70
2022/11/20 01:03:36;;;;;;;1999.90;999.90;;;5.40;99.90;;;;;;5023858;28;20495;-70
2022/11/20 01:06:13;;;;;;;1999.90;999.90;;;5.50;99.90;;;;;;5019001;28;20463;-69
2022/11/20 01:08:40;;;;;;;1999.90;999.90;;;5.40;99.90;;;;;;5013106;28;20400;-68
2022/11/20 01:11:11;;;;;;;1999.90;999.90;;;5.40;99.90;;;;;;5013205;28;20415;-70
2022/11/20 01:13:38;;;;;;;1999.90;999.90;;;5.40;99.90;;;;;;5013209;28;20411;-69
2022/11/20 01:16:15;;;;;;;1999.90;999.90;;;5.40;99.90;;;;;;5013348;28;20802;-70
2022/11/20 01:18:43;;;;;;;1999.90;999.90;;;5.30;99.90;;;;;;5012951;28;20435;-68
2022/11/20 01:21:15;;;;;;;1999.90;999.90;;;5.40;99.90;;;;;;5012451;28;20420;-69
2022/11/20 01:23:42;;;;;;;1999.90;999.90;;;5.40;99.90;;;;;;5013362;28;20486;-69
2022/11/20 01:26:17;;;;;;;1999.90;999.90;;;5.40;99.90;;;;;;5015114;28;20455;-69
2022/11/20 01:28:43;;;;;;;1999.90;999.90;;;5.40;99.90;;;;;;5015671;28;20447;-69
2022/11/20 01:31:14;;;;;;;1999.90;999.90;;;5.30;99.90;;;;;;5016486;28;20459;-69
2022/11/20 01:33:41;;;;;;;1999.90;999.90;;;5.30;99.90;;;;;;5013120;28;20991;-69
2022/11/20 01:36:07;;;;;;;1999.90;999.90;;;5.30;99.90;;;;;;5012992;28;20454;-69
2022/11/20 01:38:33;;;;;;;1999.90;999.90;;;5.30;99.90;;;;;;5011408;28;20415;-69
2022/11/20 01:40:58;;;;;;;1999.90;999.90;;;5.30;99.90;;;;;;5012850;28;20405;-69
2022/11/20 01:43:25;;;;;;;1999.90;999.90;;;5.30;99.90;;;;;;5019411;28;20173;-69
2022/11/20 01:46:16;;;;;;;1999.90;999.90;;;5.50;99.90;;;;;;5021315;28;20705;-69
2022/11/20 01:48:54;;;;;;;1999.90;999.90;;;5.30;99.90;;;;;;5018132;28;20482;-70
2022/11/20 01:51:31;;;;;;;1999.90;999.90;;;5.30;99.90;;;;;;5012464;28;20418;-68
2022/11/20 01:54:00;;;;;;;1999.90;999.90;;;5.30;99.90;;;;;;5012793;28;20491;-70
2022/11/20 01:56:26;;;;;;;1999.90;999.90;;;5.30;99.90;;;;;;5023972;28;20404;-71
2022/11/20 01:58:56;;;;;;;1999.90;999.90;;;5.30;99.90;;;;;;5013232;28;20404;-70
2022/11/20 02:01:22;;;;;;;1999.90;999.90;;;5.30;99.90;;;;;;5013353;28;20407;-69
2022/11/20 02:03:49;;;;;;;1999.90;999.90;;;5.30;99.90;;;;;;5012337;28;20893;-69
2022/11/20 02:06:28;;;;;;;1999.90;999.90;;;5.30;99.90;;;;;;5012735;28;20420;-70
2022/11/20 02:08:54;;;;;;;1999.90;999.90;;;5.30;99.90;;;;;;5012226;28;20762;-69
2022/11/20 02:11:20;;;;;;;1999.90;999.90;;;5.30;99.90;;;;;;5012565;28;20408;-70
2022/11/20 02:13:46;;;;;;;1999.90;999.90;;;5.30;99.90;;;;;;5012694;28;20392;-70
2022/11/20 02:16:23;;;;;;;1999.90;999.90;;;5.30;99.90;;;;;;5012443;28;20673;-69
2022/11/20 02:18:49;;;;;;;1999.90;999.90;;;5.30;99.90;;;;;;5015920;28;20951;-69
2022/11/20 02:21:30;;;;;;;1999.90;999.90;;;5.20;99.90;;;;;;5017756;28;20426;-69
2022/11/20 02:24:09;;;;;;;1999.90;999.90;;;5.20;99.90;;;;;;5012392;28;20404;-69
2022/11/20 02:26:41;;;;;;;1999.90;999.90;;;5.20;99.90;;;;;;5012353;28;20400;-69
2022/11/20 02:29:06;;;;;;;1999.90;999.90;;;5.20;99.90;;;;;;5012144;28;20408;-69
2022/11/20 02:31:41;;;;;;;1999.90;999.90;;;5.20;99.90;;;;;;5012225;28;20404;-70
2022/11/20 02:34:07;;;;;;;1999.90;999.90;;;5.20;99.90;;;;;;5016210;28;20177;-70
2022/11/20 02:36:35;;;;;;;1999.90;999.90;;;5.20;99.90;;;;;;5016174;28;20404;-69
2022/11/20 02:39:02;;;;;;;1999.90;999.90;;;5.60;99.90;;;;;;5019481;28;20514;-68
2022/11/20 02:41:36;;;;;;;1999.90;999.90;;;5.20;99.90;;;;;;5016467;28;20408;-70
2022/11/20 02:44:03;;;;;;;1999.90;999.90;;;5.20;99.90;;;;;;5017788;28;20427;-69
2022/11/20 02:46:29;;;;;;;1999.90;999.90;;;5.20;99.90;;;;;;5015794;28;20466;-69
2022/11/20 02:48:55;;;;;;;1999.90;999.90;;;5.20;99.90;;;;;;5015991;28;20912;-70
2022/11/20 02:51:21;;;;;;;1999.90;999.90;;;5.20;99.90;;;;;;5016246;28;20494;-69
2022/11/20 02:53:47;;;;;;;1999.90;999.90;;;5.10;99.90;;;;;;5016461;28;20216;-69
2022/11/20 02:56:12;;;;;;;1999.90;999.90;;;4.90;99.90;;;;;;5015663;28;20418;-70
2022/11/20 02:58:38;;;;;;;1999.90;999.90;;;5.00;99.90;;;;;;5018942;28;20239;-69
2022/11/20 03:01:04;;;;;;;1999.90;999.90;;;5.00;99.90;;;;;;5020325;28;20248;-71
2022/11/20 03:03:29;;;;;;;1999.90;999.90;;;5.00;99.90;;;;;;5019843;28;20187;-69
2022/11/20 03:05:55;;;;;;;1999.90;999.90;;;4.90;99.90;;;;;;5015306;28;20205;-69
2022/11/20 03:08:20;;;;;;;1999.90;999.90;;;5.00;99.90;;;;;;5015365;28;20533;-69
2022/11/20 03:10:46;;;;;;;1999.90;999.90;;;5.00;99.90;;;;;;5015602;28;20161;-69
2022/11/20 03:13:11;;;;;;;1999.90;999.90;;;4.90;99.90;;;;;;5022205;28;20797;-69
2022/11/20 03:15:37;;;;;;;1999.90;999.90;;;4.90;99.90;;;;;;5015163;28;20287;-69
2022/11/20 03:18:03;;;;;;;1999.90;999.90;;;4.90;99.90;;;;;;5015307;28;20542;-69
2022/11/20 03:20:29;;;;;;;1999.90;999.90;;;4.80;99.90;;;;;;5015526;28;20261;-69
2022/11/20 03:22:55;;;;;;;1999.90;999.90;;;4.80;99.90;;;;;;5015661;28;20403;-69
2022/11/20 03:25:21;;;;;;;1999.90;999.90;;;4.80;99.90;;;;;;5025630;28;20197;-70
2022/11/20 03:27:46;;;;;;;1999.90;999.90;;;4.80;99.90;;;;;;5020258;28;20763;-70
2022/11/20 03:30:13;;;;;;;1999.90;999.90;;;4.70;99.90;;;;;;5015223;28;20396;-69
2022/11/20 03:32:39;;;;;;;1999.90;999.90;;;4.70;99.90;;;;;;5015333;28;20181;-70
2022/11/20 03:35:05;;;;;;;1999.90;999.90;;;4.80;99.90;;;;;;5019417;28;20439;-71
2022/11/20 03:37:32;;;;;;;1999.90;999.90;;;4.80;99.90;;;;;;5023342;28;20204;-70
2022/11/20 03:39:57;;;;;;;1999.90;999.90;;;4.90;99.90;;;;;;5015547;28;20805;-69
2022/11/20 03:45:08;;;;;;;1999.90;999.90;;;4.80;99.90;;;;;;5021166;28;20300;-70
2022/11/20 03:47:33;;;;;;;1999.90;999.90;;;4.90;99.90;;;;;;5021268;28;20762;-70
2022/11/20 03:49:59;;;;;;;1999.90;999.90;;;4.90;99.90;;;;;;5016614;28;20424;-71
2022/11/20 03:52:24;;;;;;;1999.90;999.90;;;4.90;99.90;;;;;;5017824;28;20628;-70
2022/11/20 03:54:50;;;;;;;1999.90;999.90;;;4.90;99.90;;;;;;5022160;28;20205;-70
2022/11/20 03:57:16;;;;;;;1999.90;999.90;;;4.90;99.90;;;;;;5020165;28;20209;-71
2022/11/20 03:59:41;;;;;;;1999.90;999.90;;;4.90;99.90;;;;;;5019797;28;20200;-69
2022/11/20 04:02:07;;;;;;;1999.90;999.90;;;4.90;99.90;;;;;;5019446;28;20196;-71
2022/11/20 04:04:32;;;;;;;1999.90;999.90;;;4.90;99.90;;;;;;5015133;28;20192;-69
2022/11/20 04:06:58;;;;;;;1999.90;999.90;;;4.90;99.90;;;;;;5018103;28;20173;-69
2022/11/20 04:09:23;;;;;;;1999.90;999.90;;;4.80;99.90;;;;;;5014365;28;20169;-69
2022/11/20 04:11:49;;;;;;;1999.90;999.90;;;4.90;99.90;;;;;;5014308;28;20680;-69
2022/11/20 04:14:16;;;;;;;1999.90;999.90;;;4.90;99.90;;;;;;5014655;28;20642;-70
2022/11/20 04:16:42;;;;;;;1999.90;999.90;;;4.80;99.90;;;;;;5014416;28;20259;-69
2022/11/20 04:19:14;;;;;;;1999.90;999.90;;;4.80;99.90;;;;;;5020436;28;20460;-69
2022/11/20 04:21:41;;;;;;;1999.90;999.90;;;4.80;99.90;;;;;;5014492;28;20483;-69
2022/11/20 04:24:07;;;;;;;1999.90;999.90;;;4.80;99.90;;;;;;5014250;28;20491;-69
2022/11/20 04:26:33;;;;;;;1999.90;999.90;;;4.80;99.90;;;;;;5025419;28;20518;-70
2022/11/20 04:29:00;;;;;;;1999.90;999.90;;;4.80;99.90;;;;;;5014735;28;20434;-70
2022/11/20 04:31:28;;;;;;;1999.90;999.90;;;4.80;99.90;;;;;;5026477;28;20416;-71
2022/11/20 04:33:54;;;;;;;1999.90;999.90;;;4.80;99.90;;;;;;5026069;28;20488;-71
2022/11/20 04:36:23;;;;;;;1999.90;999.90;;;4.90;99.90;;;;;;5025613;28;20423;-71
2022/11/20 04:38:56;;;;;;;1999.90;999.90;;;4.90;99.90;;;;;;5018706;28;20408;-70
2022/11/20 04:41:24;;;;;;;1999.90;999.90;;;4.80;99.90;;;;;;5017894;28;20415;-70
2022/11/20 04:43:52;;;;;;;1999.90;999.90;;;4.80;99.90;;;;;;5014093;28;20404;-70
2022/11/20 04:46:19;;;;;;;1999.90;999.90;;;4.80;99.90;;;;;;5014050;28;20463;-69
2022/11/20 04:48:45;;;;;;;1999.90;999.90;;;4.90;99.90;;;;;;5013426;28;20454;-69
2022/11/20 04:51:11;;;;;;;1999.90;999.90;;;4.80;99.90;;;;;;5013697;28;20403;-70
2022/11/20 04:53:37;;;;;;;1999.90;999.90;;;4.90;99.90;;;;;;5016793;28;20409;-70
2022/11/20 04:56:05;;;;;;;1999.90;999.90;;;5.20;99.90;;;;;;5015351;28;20196;-71
2022/11/20 04:58:30;;;;;;;1999.90;999.90;;;5.00;99.90;;;;;;5016279;28;20177;-70
2022/11/20 05:01:07;;;;;;;1999.90;999.90;;;5.10;99.90;;;;;;5013945;28;20767;-70
2022/11/20 05:03:32;;;;;;;1999.90;999.90;;;5.00;99.90;;;;;;5016206;28;20176;-71
2022/11/20 05:06:05;;;;;;;1999.90;999.90;;;5.10;99.90;;;;;;5014327;28;20463;-69
2022/11/20 05:08:31;;;;;;;1999.90;999.90;;;5.10;99.90;;;;;;5014541;28;20177;-70
2022/11/20 05:11:12;;;;;;;1999.90;999.90;;;5.10;99.90;;;;;;5015253;28;20412;-69
2022/11/20 05:13:38;;;;;;;1999.90;999.90;;;5.10;99.90;;;;;;5014793;28;20400;-70
2022/11/20 05:16:07;;;;;;;1999.90;999.90;;;5.10;99.90;;;;;;5015468;28;20447;-71
2022/11/20 05:18:34;;;;;;;1999.90;999.90;;;5.10;99.90;;;;;;5015124;28;20877;-70
2022/11/20 05:21:00;;;;;;;1999.90;999.90;;;5.10;99.90;;;;;;5017571;28;20407;-70
2022/11/20 05:23:26;;;;;;;1999.90;999.90;;;5.10;99.90;;;;;;5015466;28;20913;-69
2022/11/20 05:25:53;;;;;;;1999.90;999.90;;;5.10;99.90;;;;;;5014514;28;20550;-70
2022/11/20 05:28:19;;;;;;;1999.90;999.90;;;5.10;99.90;;;;;;5013890;28;20396;-69
2022/11/20 05:30:45;;;;;;;1999.90;999.90;;;5.10;99.90;;;;;;5012855;28;20404;-70
2022/11/20 05:33:10;;;;;;;1999.90;999.90;;;5.10;99.90;;;;;;5012880;28;20534;-69
2022/11/20 05:35:36;;;;;;;1999.90;999.90;;;5.20;99.90;;;;;;5012675;28;20197;-69
2022/11/20 05:38:01;;;;;;;1999.90;999.90;;;5.10;99.90;;;;;;5012684;28;20181;-69
2022/11/20 05:40:27;;;;;;;1999.90;999.90;;;5.20;99.90;;;;;;5012719;28;20173;-69
2022/11/20 05:42:52;;;;;;;1999.90;999.90;;;5.20;99.90;;;;;;5014908;28;20169;-71
2022/11/20 05:45:18;;;;;;;1999.90;999.90;;;5.20;99.90;;;;;;5019422;28;20292;-70
2022/11/20 05:47:43;;;;;;;1999.90;999.90;;;5.20;99.90;;;;;;5012323;28;20578;-69
2022/11/20 05:50:09;;;;;;;1999.90;999.90;;;5.20;99.90;;;;;;5012906;28;20180;-70
2022/11/20 05:52:35;;;;;;;1999.90;999.90;;;5.20;99.90;;;;;;5015990;28;20236;-70
2022/11/20 05:55:00;;;;;;;1999.90;999.90;;;5.20;99.90;;;;;;5022355;28;20238;-69
2022/11/20 05:57:26;;;;;;;1999.90;999.90;;;5.20;99.90;;;;;;5018935;28;20569;-69
2022/11/20 05:59:51;;;;;;;1999.90;999.90;;;5.20;99.90;;;;;;5012398;28;20170;-69
2022/11/20 06:02:17;;;;;;;1999.90;999.90;;;5.10;99.90;;;;;;5012550;28;20181;-69
2022/11/20 06:04:43;;;;;;;1999.90;999.90;;;5.10;99.90;;;;;;5014800;28;20200;-70
2022/11/20 06:07:08;;;;;;;1999.90;999.90;;;5.10;99.90;;;;;;5023808;28;20179;-70
2022/11/20 06:09:34;;;;;;;1999.90;999.90;;;5.20;99.90;;;;;;5014836;28;20227;-69
2022/11/20 06:12:00;;;;;;;1999.90;999.90;;;5.10;99.90;;;;;;5013026;28;20187;-70
2022/11/20 06:14:25;;;;;;;1999.90;999.90;;;5.20;99.90;;;;;;5015817;28;20213;-69
2022/11/20 06:16:51;;;;;;;1999.90;999.90;;;5.20;99.90;;;;;;5017530;28;20238;-70
2022/11/20 06:19:17;;;;;;;1999.90;999.90;;;5.20;99.90;;;;;;5013184;28;20177;-69
2022/11/20 06:21:42;;;;;;;1999.90;999.90;;;5.20;99.90;;;;;;5016300;28;20665;-71
2022/11/20 06:24:11;;;;;;;1999.90;999.90;;;5.10;99.90;;;;;;5012987;28;20573;-69
2022/11/20 06:26:37;;;;;;;1999.90;999.90;;;5.10;99.90;;;;;;5015634;28;20532;-69
2022/11/20 06:29:02;;;;;;;1999.90;999.90;;;5.10;99.90;;;;;;5013214;28;20412;-69
2022/11/20 06:31:28;;;;;;;1999.90;999.90;;;5.20;99.90;;;;;;5012198;28;20179;-70
2022/11/20 06:33:54;;;;;;;1999.90;999.90;;;5.10;99.90;;;;;;5015075;28;20634;-70
2022/11/20 06:36:22;;;;;;;1999.90;999.90;;;5.20;99.90;;;;;;5015266;28;20169;-69
2022/11/20 06:38:47;;;;;;;1999.90;999.90;;;5.20;99.90;;;;;;5011807;28;20916;-69
2022/11/20 06:41:16;;;;;;;1999.90;999.90;;;5.20;99.90;;;;;;5017035;28;20408;-69
2022/11/20 06:43:42;;;;;;;1999.90;999.90;;;5.30;99.90;;;;;;5021784;28;20176;-70
2022/11/20 06:46:10;;;;;;;1999.90;999.90;;;5.20;99.90;;;;;;5013672;28;20952;-71
2022/11/20 06:48:35;;;;;;;1999.90;999.90;;;5.20;99.90;;;;;;5013443;28;20432;-70
2022/11/20 06:51:04;;;;;;;1999.90;999.90;;;5.30;99.90;;;;;;5012618;28;20495;-71
2022/11/20 06:53:30;;;;;;;1999.90;999.90;;;5.20;99.90;;;;;;5012035;28;20218;-69
2022/11/20 06:56:00;;;;;;;1999.90;999.90;;;5.20;99.90;;;;;;5011710;28;20504;-71
2022/11/20 06:58:31;;;;;;;1999.90;999.90;;;5.20;99.90;;;;;;5014716;28;20215;-71
2022/11/20 07:01:01;;;;;;;1999.90;999.90;;;5.20;99.90;;;;;;5012263;28;20404;-70
2022/11/20 07:03:27;;;;;;;1999.90;999.90;;;5.20;99.90;;;;;;5013848;28;20415;-71
2022/11/20 07:05:55;;;;;;;1999.90;999.90;;;5.30;99.90;;;;;;5011907;28;20452;-70
2022/11/20 07:08:21;;;;;;;1999.90;999.90;;;5.30;99.90;;;;;;5011625;28;20426;-69
2022/11/20 07:10:47;;;;;;;1999.90;999.90;;;5.20;99.90;;;;;;5011789;28;20407;-70
2022/11/20 07:13:13;;;;;;;1999.90;999.90;;;5.20;99.90;;;;;;5012794;28;20400;-69
2022/11/20 07:15:39;;;;;;;1999.90;999.90;;;5.10;99.90;;;;;;5011601;28;20207;-70
2022/11/20 07:18:04;;;;;;;1999.90;999.90;;;5.10;99.90;;;;;;5012501;28;20478;-69
2022/11/20 07:20:30;;;;;;;1999.90;999.90;;;5.00;99.90;;;;;;5015817;28;20192;-70
2022/11/20 07:22:56;;;;;;;1999.90;999.90;;;5.00;99.90;;;;;;5015732;28;20192;-70
2022/11/20 07:25:23;;;;;;;1999.90;999.90;;;5.00;99.90;;;;;;5017484;28;20197;-71
2022/11/20 07:27:48;;;;;;;1999.90;999.90;;;5.00;99.90;;;;;;5020451;28;20396;-69
2022/11/20 07:30:15;;;;;;;1999.90;999.90;;;5.00;99.90;;;;;;5015532;28;20502;-70
2022/11/20 07:32:40;;;;;;;1999.90;999.90;;;5.00;99.90;;;;;;5021007;28;20188;-69
2022/11/20 07:35:06;;;;;;;1999.90;999.90;;;5.00;99.90;;;;;;5024360;28;20920;-71
2022/11/20 07:37:34;;;;;;;1999.90;999.90;;;5.10;99.90;;;;;;5015489;28;20173;-70
2022/11/20 07:40:00;;;;;;;1999.90;999.90;;;5.10;99.90;;;;;;5015112;28;20488;-69
2022/11/20 07:42:25;;;;;;;1999.90;999.90;;;5.00;99.90;;;;;;5015640;28;20494;-70
2022/11/20 07:44:51;;;;;;;1999.90;999.90;;;5.00;99.90;;;;;;5016196;28;20677;-70
2022/11/20 07:47:16;;;;;;;1999.90;999.90;;;5.00;99.90;;;;;;5017217;28;20233;-70
2022/11/20 07:49:42;;;;;;;1999.90;999.90;;;5.00;99.90;;;;;;5020046;28;20626;-69
2022/11/20 07:52:08;;;;;;;1999.90;999.90;;;5.10;99.90;;;;;;5014777;28;20180;-69
2022/11/20 07:54:33;;;;;;;1999.90;999.90;;;5.00;99.90;;;;;;5022267;28;20200;-70
2022/11/20 07:56:59;;;;;;;1999.90;999.90;;;5.00;99.90;;;;;;5020397;28;20177;-69
2022/11/20 07:59:24;;;;;;;1999.90;999.90;;;5.10;99.90;;;;;;5015158;28;20177;-70
2022/11/20 08:01:50;;;;;;;1999.90;999.90;;;5.70;99.90;;;;;;5013392;28;20181;-70
2022/11/20 08:04:16;;;;;;;1999.90;999.90;;;5.20;99.90;;;;;;5014640;28;20607;-69
2022/11/20 08:06:41;;;;;;;1999.90;999.90;;;5.20;99.90;;;;;;5014581;28;20704;-69
2022/11/20 08:09:07;;;;;;;1999.90;999.90;;;5.30;99.90;;;;;;5018165;28;20165;-70
2022/11/20 08:14:17;;;;;;;1999.90;999.90;;;5.30;99.90;;;;;;5014184;28;20211;-68
2022/11/20 08:16:50;;;;;;;1999.90;999.90;;;5.30;99.90;;;;;;5014108;28;20886;-69
2022/11/20 08:19:17;;;;;;;1999.90;999.90;;;5.40;99.90;;;;;;5013967;28;20177;-68
2022/11/20 08:21:43;;;;;;;1999.90;999.90;;;5.40;99.90;;;;;;5014031;28;20894;-69
2022/11/20 08:24:10;;;;;;;1999.90;999.90;;;5.50;99.90;;;;;;5013938;28;20424;-69
2022/11/20 08:26:37;;;;;;;1999.90;999.90;;;5.50;99.90;;;;;;5014013;28;21056;-69
2022/11/20 08:29:04;;;;;;;1999.90;999.90;;;5.50;99.90;;;;;;5013889;28;20478;-69
2022/11/20 08:31:30;;;;;;;1999.90;999.90;;;5.60;99.90;;;;;;5014085;28;20404;-69
2022/11/20 08:33:56;;;;;;;1999.90;999.90;;;5.60;99.90;;;;;;5013852;28;20411;-69
2022/11/20 08:36:22;;;;;;;1999.90;999.90;;;5.60;99.90;;;;;;5013799;28;20408;-69
2022/11/20 08:38:50;;;;;;;1999.90;999.90;;;5.80;99.90;;;;;;5013771;28;20172;-70
2022/11/20 08:41:28;;;;;;;1999.90;999.90;;;5.80;99.90;;;;;;5014317;28;20395;-69
2022/11/20 08:44:01;;;;;;;1999.90;999.90;;;5.80;99.90;;;;;;5015006;28;20408;-70
2022/11/20 08:46:33;;;;;;;1999.90;999.90;;;6.00;99.90;;;;;;5017065;28;20518;-71
2022/11/20 08:48:58;;;;;;;1999.90;999.90;;;6.10;99.90;;;;;;5019694;28;20404;-71
2022/11/20 08:51:24;;;;;;;1999.90;999.90;;;6.10;99.90;;;;;;5015659;28;20495;-71
2022/11/20 08:53:49;;;;;;;1999.90;999.90;;;6.00;99.90;;;;;;5016063;28;20197;-71
2022/11/20 08:56:16;;;;;;;1999.90;999.90;;;6.10;99.90;;;;;;5016964;28;20181;-69
2022/11/20 08:58:42;;;;;;;1999.90;999.90;;;6.10;99.90;;;;;;5013729;28;20248;-70
2022/11/20 09:01:08;;;;;;;1999.90;999.90;;;6.10;99.90;;;;;;5015102;28;20451;-70
2022/11/20 09:03:33;;;;;;;1999.90;999.90;;;6.20;99.90;;;;;;5013401;28;20252;-69
2022/11/20 09:06:05;;;;;;;1999.90;999.90;;;6.30;99.90;;;;;;5013397;28;20606;-70
2022/11/20 09:08:31;;;;;;;1999.90;999.90;;;6.30;99.90;;;;;;5013199;28;20219;-70
2022/11/20 09:10:58;;;;;;;1999.90;999.90;;;6.30;99.90;;;;;;5013254;28;20940;-69
2022/11/20 09:13:25;;;;;;;1999.90;999.90;;;6.30;99.90;;;;;;5013236;28;20933;-69
2022/11/20 09:16:01;;;;;;;1999.90;999.90;;;6.40;99.90;;;;;;5018096;28;20475;-71
2022/11/20 09:18:28;;;;;;;1999.90;999.90;;;6.40;99.90;;;;;;5016308;28;20767;-69
2022/11/20 09:21:01;;;;;;;1999.90;999.90;;;6.50;99.90;;;;;;5022552;28;20408;-71
2022/11/20 09:23:30;;;;;;;1999.90;999.90;;;6.60;99.90;;;;;;5024427;28;20416;-71
2022/11/20 09:25:59;;;;;;;1999.90;999.90;;;6.60;99.90;;;;;;5023109;28;20550;-70
2022/11/20 09:28:26;;;;;;;1999.90;999.90;;;6.60;99.90;;;;;;5019496;28;20416;-70
2022/11/20 09:30:52;;;;;;;1999.90;999.90;;;6.70;99.90;;;;;;5014335;28;20861;-70
2022/11/20 09:33:18;;;;;;;1999.90;999.90;;;6.70;99.90;;;;;;5013139;28;20400;-69
2022/11/20 09:35:44;;;;;;;1999.90;999.90;;;6.70;99.90;;;;;;5014990;28;20788;-71
2022/11/20 09:38:13;;;;;;;1999.90;999.90;;;6.80;99.90;;;;;;5013813;28;20408;-70
2022/11/20 09:40:46;;;;;;;1999.90;999.90;;;6.90;99.90;;;;;;5012857;28;20487;-71
2022/11/20 09:43:15;;;;;;;1999.90;999.90;;;7.00;99.90;;;;;;5012974;28;20473;-69
2022/11/20 09:45:50;;;;;;;1999.90;999.90;;;7.00;99.90;;;;;;5012835;28;20460;-71
2022/11/20 09:48:27;;;;;;;1999.90;999.90;;;7.00;99.90;;;;;;5013356;28;20959;-71
2022/11/20 09:51:16;;;;;;;1999.90;999.90;;;6.90;99.90;;;;;;5012782;28;20389;-69
2022/11/20 09:54:05;;;;;;;1999.90;999.90;;;6.90;99.90;;;;;;5001833;28;20451;-69
2022/11/20 09:56:36;;;;;;;1999.90;999.90;;;6.90;99.90;;;;;;5012375;28;20818;-69
2022/11/20 09:59:06;;;;;;;1999.90;999.90;;;6.90;99.90;;;;;;5012239;28;20438;-69
2022/11/20 10:01:35;;;;;;;1999.90;999.90;;;6.80;99.90;;;;;;5012597;28;20523;-70
2022/11/20 10:04:06;;;;;;;1999.90;999.90;;;6.80;99.90;;;;;;5013582;28;20404;-70
2022/11/20 10:06:58;;;;;;;1999.90;999.90;;;6.80;99.90;;;;;;5013681;28;20478;-71
2022/11/20 10:09:39;;;;;;;1999.90;999.90;;;6.90;99.90;;;;;;5012625;28;20467;-68
2022/11/20 10:12:24;;;;;;;1999.90;999.90;;;7.10;99.90;;;;;;5015764;28;20940;-70
2022/11/20 10:15:10;;;;;;;1999.90;999.90;;;7.10;99.90;;;;;;5015590;28;20448;-71
2022/11/20 10:18:01;;;;;;;1999.90;999.90;;;7.20;99.90;;;;;;5013779;28;20426;-69
2022/11/20 10:20:53;;;;;;;1999.90;999.90;;;7.20;99.90;;;;;;5012289;28;20484;-69
2022/11/20 10:23:34;;;;;;;1999.90;999.90;;;7.30;99.90;;;;;;4976617;28;20526;-69
2022/11/20 10:26:30;;;;;;;1999.90;999.90;;;7.30;99.90;;;;;;5008326;28;20506;-71
2022/11/20 10:29:10;;;;;;;1999.90;999.90;;;7.30;99.90;;;;;;4979110;28;20518;-71
2022/11/20 10:31:39;;;;;;;1999.90;999.90;;;7.20;99.90;;;;;;5013087;28;20871;-70
2022/11/20 10:34:22;;;;;;;1999.90;999.90;;;7.10;99.90;;;;;;5012431;28;20593;-70
2022/11/20 10:37:15;;;;;;;1999.90;999.90;;;7.20;99.90;;;;;;5012864;28;20414;-68
2022/11/20 10:40:03;;;;;;;1999.90;999.90;;;7.00;99.90;;;;;;5003419;28;20463;-69
2022/11/20 10:42:36;;;;;;;1999.90;999.90;;;7.00;99.90;;;;;;5011240;28;20404;-69
2022/11/20 10:45:23;;;;;;;1999.90;999.90;;;7.00;99.90;;;;;;5012363;28;20456;-70
2022/11/20 10:47:49;;;;;;;1999.90;999.90;;;7.00;99.90;;;;;;5015118;28;20602;-71
2022/11/20 10:50:20;;;;;;;1999.90;999.90;;;6.90;99.90;;;;;;5019583;28;20416;-71
2022/11/20 10:53:05;;;;;;;1999.90;999.90;;;6.90;99.90;;;;;;5017276;28;20411;-70
2022/11/20 10:55:46;;;;;;;1999.90;999.90;;;6.90;99.90;;;;;;5023805;28;20797;-70
2022/11/20 10:58:49;;;;;;;1999.90;999.90;;;6.80;99.90;;;;;;5017390;28;20450;-70
2022/11/20 11:01:18;;;;;;;1999.90;999.90;;;6.80;99.90;;;;;;5015854;28;20426;-69
2022/11/20 11:03:44;;;;;;;1999.90;999.90;;;6.70;99.90;;;;;;5013634;28;20508;-70
2022/11/20 11:06:36;;;;;;;1999.90;999.90;;;6.70;99.90;;;;;;5015126;28;20949;-69
2022/11/20 11:09:09;;;;;;;1999.90;999.90;;;6.60;99.90;;;;;;5015158;28;20415;-69
2022/11/20 11:11:35;;;;;;;1999.90;999.90;;;6.70;99.90;;;;;;5014974;28;20407;-69
2022/11/20 11:14:12;;;;;;;1999.90;999.90;;;6.70;99.90;;;;;;5014940;28;20391;-69
2022/11/20 11:16:56;;;;;;;1999.90;999.90;;;6.70;99.90;;;;;;5014852;28;20165;-69
2022/11/20 11:19:21;;;;;;;1999.90;999.90;;;6.80;99.90;;;;;;5014611;28;20403;-69
2022/11/20 11:21:52;;;;;;;1999.90;999.90;;;6.80;99.90;;;;;;5015026;28;20403;-70
2022/11/20 11:24:29;;;;;;;1999.90;999.90;;;6.70;99.90;;;;;;5016039;28;20442;-70
2022/11/20 11:27:04;;;;;;;1999.90;999.90;;;6.70;99.90;;;;;;5017041;28;20490;-69
2022/11/20 11:29:31;;;;;;;1999.90;999.90;;;6.70;99.90;;;;;;5016353;28;20807;-70
2022/11/20 11:32:05;;;;;;;1999.90;999.90;;;6.70;99.90;;;;;;5015042;28;20410;-71
2022/11/20 11:34:31;;;;;;;1999.90;999.90;;;6.70;99.90;;;;;;5014285;28;20849;-70
2022/11/20 11:37:00;;;;;;;1999.90;999.90;;;6.70;99.90;;;;;;5015488;28;20845;-68
2022/11/20 11:39:28;;;;;;;1999.90;999.90;;;6.70;99.90;;;;;;5014764;28;20499;-68
2022/11/20 11:41:54;;;;;;;1999.90;999.90;;;6.80;99.90;;;;;;5014279;28;20420;-68
2022/11/20 11:47:21;;;;;;;1999.90;999.90;;;6.80;99.90;;;;;;5027184;28;20436;-67
2022/11/20 11:49:47;;;;;;;1999.90;999.90;;;6.90;99.90;;;;;;5025306;28;20416;-69
2022/11/20 11:52:17;;;;;;;1999.90;999.90;;;6.80;99.90;;;;;;5027244;28;20538;-69
2022/11/20 11:54:49;;;;;;;1999.90;999.90;;;7.00;99.90;;;;;;5027611;28;20277;-69
2022/11/20 11:57:23;;;;;;;1999.90;999.90;;;6.90;99.90;;;;;;5027362;28;20485;-69
2022/11/20 12:00:11;;;;;;;1999.90;999.90;;;7.20;99.90;;;;;;5026161;28;20424;-69
2022/11/20 12:02:48;;;;;;;1999.90;999.90;;;6.90;99.90;;;;;;5028292;28;20468;-67
2022/11/20 12:05:21;;;;;;;1999.90;999.90;;;7.10;99.90;;;;;;5022875;28;20547;-68
2022/11/20 12:08:10;;;;;;;1999.90;999.90;;;7.10;99.90;;;;;;5026084;28;20415;-69
2022/11/20 12:10:57;;;;;;;1999.90;999.90;;;7.20;99.90;;;;;;5026302;28;20412;-68
2022/11/20 12:13:44;;;;;;;1999.90;999.90;;;7.20;99.90;;;;;;5028579;28;20408;-69
2022/11/20 12:16:13;;;;;;;1999.90;999.90;;;7.80;99.90;;;;;;5026187;28;20950;-69
2022/11/20 12:18:41;;;;;;;1999.90;999.90;;;7.30;99.90;;;;;;5025893;28;20404;-69
2022/11/20 12:21:22;;;;;;;1999.90;999.90;;;7.30;99.90;;;;;;5026070;28;20439;-69
2022/11/20 12:24:10;;;;;;;1999.90;999.90;;;8.30;99.90;;;;;;5025636;28;20438;-69
2022/11/20 12:27:00;;;;;;;1999.90;999.90;;;7.30;99.90;;;;;;5027201;28;20451;-69